Time;durP1;ratioP1;P1;durP2;ratioP2;P2;SDS_P1;SDS_P2;PMS_P1;PMS_P2;Temp;Humidity;BMP_temperature;BMP_pressure;BME280_temperature;BME280_humidity;BME280_pressure;Samples;Min_cycle;Max_cycle;Signal;HPM_P1;HPM_P2
2024/04/06 00:01:14;;;;;;;6.35;2.22;;;;;;;;;;5061720;29;20124;-79
2024/04/06 00:03:49;;;;;;;4.03;1.98;;;;;;;;;;5075042;29;20048;-79
2024/04/06 00:06:20;;;;;;;4.45;2.75;;;;;;;;;;5063074;29;20075;-80
2024/04/06 00:08:53;;;;;;;4.28;2.38;;;;;;;;;;5079263;29;20075;-79
2024/04/06 00:11:26;;;;;;;6.00;2.20;;;;;;;;;;5062939;29;20063;-80
2024/04/06 00:13:56;;;;;;;4.40;2.10;;;;;;;;;;5067416;29;20039;-79
2024/04/06 00:16:29;;;;;;;2.53;1.98;;;;;;;;;;5078542;29;20047;-79
2024/04/06 00:19:01;;;;;;;2.97;2.00;;;;;;;;;;5079796;29;20064;-79
2024/04/06 00:21:36;;;;;;;5.75;2.88;;;;;;;;;;5063672;29;22208;-79
2024/04/06 00:24:10;;;;;;;3.87;2.53;;;;;;;;;;5061852;29;20851;-79
2024/04/06 00:26:44;;;;;;;6.07;2.85;;;;;;;;;;5079264;29;20052;-78
2024/04/06 00:29:16;;;;;;;6.20;2.42;;;;;;;;;;5076350;29;20362;-79
2024/04/06 00:31:48;;;;;;;6.32;2.40;;;;;;;;;;5057064;29;20060;-79
2024/04/06 00:34:18;;;;;;;5.35;2.15;;;;;;;;;;5063244;29;20048;-78
2024/04/06 00:36:54;;;;;;;3.90;2.17;;;;;;;;;;5077283;29;20063;-79
2024/04/06 00:39:27;;;;;;;4.25;2.20;;;;;;;;;;5063193;29;21549;-80
2024/04/06 00:42:00;;;;;;;2.15;1.55;;;;;;;;;;5063534;29;20136;-80
2024/04/06 00:44:31;;;;;;;4.32;2.45;;;;;;;;;;5078286;29;20079;-79
2024/04/06 00:47:03;;;;;;;4.30;2.20;;;;;;;;;;5059781;29;20040;-79
2024/04/06 00:49:34;;;;;;;5.45;2.67;;;;;;;;;;5076646;29;20124;-79
2024/04/06 00:52:06;;;;;;;4.68;1.85;;;;;;;;;;5065515;29;20092;-78
2024/04/06 00:54:38;;;;;;;3.10;1.98;;;;;;;;;;5061051;29;20142;-79
2024/04/06 00:57:12;;;;;;;3.33;1.80;;;;;;;;;;5083977;29;20163;-80
2024/04/06 00:59:43;;;;;;;2.97;1.80;;;;;;;;;;5060867;29;20059;-79
2024/04/06 01:02:15;;;;;;;3.50;2.00;;;;;;;;;;5073721;29;20103;-79
2024/04/06 01:04:47;;;;;;;3.60;1.80;;;;;;;;;;5062855;29;20075;-80
2024/04/06 01:07:18;;;;;;;4.00;1.80;;;;;;;;;;5045157;29;20247;-78
2024/04/06 01:09:52;;;;;;;3.33;1.80;;;;;;;;;;5050620;29;20096;-79
2024/04/06 01:12:24;;;;;;;2.35;1.55;;;;;;;;;;5073774;29;20064;-79
2024/04/06 01:14:55;;;;;;;2.55;1.63;;;;;;;;;;5064612;29;20060;-79
2024/04/06 01:17:26;;;;;;;3.72;1.73;;;;;;;;;;5078039;29;20044;-79
2024/04/06 01:20:02;;;;;;;5.00;2.22;;;;;;;;;;5043920;29;20501;-77
2024/04/06 01:22:33;;;;;;;5.30;2.40;;;;;;;;;;5066565;29;20056;-78
2024/04/06 01:25:06;;;;;;;5.82;2.13;;;;;;;;;;5075870;29;20071;-78
2024/04/06 01:27:41;;;;;;;4.45;2.38;;;;;;;;;;5058610;29;20052;-78
2024/04/06 01:30:14;;;;;;;4.85;1.98;;;;;;;;;;5043824;29;20063;-79
2024/04/06 01:32:46;;;;;;;2.28;1.90;;;;;;;;;;5075420;29;20055;-79
2024/04/06 01:35:18;;;;;;;3.53;1.67;;;;;;;;;;5063584;29;20058;-80
2024/04/06 01:37:52;;;;;;;2.60;1.42;;;;;;;;;;5046419;29;20080;-78
2024/04/06 01:40:27;;;;;;;3.17;2.03;;;;;;;;;;5047465;29;20048;-78
2024/04/06 01:42:58;;;;;;;4.90;1.98;;;;;;;;;;5047170;29;20115;-79
2024/04/06 01:45:30;;;;;;;3.75;1.80;;;;;;;;;;5078058;29;20067;-78
2024/04/06 01:48:02;;;;;;;4.03;2.05;;;;;;;;;;5066643;29;20064;-80
2024/04/06 01:50:35;;;;;;;3.72;1.80;;;;;;;;;;5078605;29;20048;-80
2024/04/06 01:53:06;;;;;;;3.80;2.20;;;;;;;;;;5077097;29;20111;-78
2024/04/06 01:55:39;;;;;;;6.57;2.60;;;;;;;;;;5080302;29;20080;-80
2024/04/06 01:58:10;;;;;;;5.03;2.15;;;;;;;;;;5068286;29;20070;-78
2024/04/06 02:00:42;;;;;;;4.32;2.30;;;;;;;;;;5046147;29;20060;-78
2024/04/06 02:03:19;;;;;;;4.05;2.03;;;;;;;;;;5082019;29;20052;-79
2024/04/06 02:05:51;;;;;;;3.80;2.25;;;;;;;;;;5080207;29;20099;-78
2024/04/06 02:08:22;;;;;;;3.78;2.20;;;;;;;;;;5080485;29;20048;-79
2024/04/06 02:10:55;;;;;;;4.15;2.30;;;;;;;;;;5067593;29;20062;-78
2024/04/06 02:13:30;;;;;;;2.78;1.95;;;;;;;;;;5046317;29;20094;-78
2024/04/06 02:16:02;;;;;;;2.60;1.92;;;;;;;;;;5086496;29;20063;-79
2024/04/06 02:18:33;;;;;;;3.63;2.22;;;;;;;;;;5049475;29;20099;-79
2024/04/06 02:21:07;;;;;;;4.00;2.10;;;;;;;;;;5079308;29;20045;-78
2024/04/06 02:23:37;;;;;;;3.42;2.00;;;;;;;;;;5080584;29;20059;-78
2024/04/06 02:26:11;;;;;;;2.65;1.92;;;;;;;;;;5096944;29;20465;-78
2024/04/06 02:28:43;;;;;;;4.00;2.13;;;;;;;;;;5047007;29;20056;-80
2024/04/06 02:31:14;;;;;;;3.13;1.92;;;;;;;;;;5049580;29;20060;-79
2024/04/06 02:33:46;;;;;;;4.07;2.22;;;;;;;;;;5082456;29;20047;-78
2024/04/06 02:36:17;;;;;;;5.20;2.13;;;;;;;;;;5080018;29;20052;-79
2024/04/06 02:38:50;;;;;;;4.27;2.17;;;;;;;;;;5077665;29;20048;-80
2024/04/06 02:41:25;;;;;;;3.28;2.20;;;;;;;;;;5066723;29;20159;-78
2024/04/06 02:43:59;;;;;;;3.55;2.40;;;;;;;;;;5078803;29;20131;-80
2024/04/06 02:46:30;;;;;;;4.07;2.20;;;;;;;;;;5064531;29;20056;-79
2024/04/06 02:49:01;;;;;;;3.53;2.38;;;;;;;;;;5072075;29;20115;-78
2024/04/06 02:51:33;;;;;;;2.97;2.15;;;;;;;;;;5062883;29;20056;-79
2024/04/06 02:54:04;;;;;;;4.47;2.00;;;;;;;;;;5062543;29;20056;-79
2024/04/06 02:56:38;;;;;;;3.25;2.33;;;;;;;;;;5079432;29;20044;-78
2024/04/06 02:59:08;;;;;;;3.28;2.03;;;;;;;;;;5044574;29;20083;-79
2024/04/06 03:01:40;;;;;;;3.55;2.03;;;;;;;;;;5047615;29;20468;-79
2024/04/06 03:04:11;;;;;;;5.10;1.83;;;;;;;;;;5075009;29;20051;-78
2024/04/06 03:06:43;;;;;;;3.95;2.35;;;;;;;;;;5068020;29;20063;-80
2024/04/06 03:09:14;;;;;;;2.65;1.75;;;;;;;;;;5080101;29;20040;-79
2024/04/06 03:11:49;;;;;;;3.13;2.10;;;;;;;;;;5079869;29;20750;-78
2024/04/06 03:14:20;;;;;;;6.00;1.80;;;;;;;;;;5077120;29;20390;-77
2024/04/06 03:16:52;;;;;;;3.00;1.70;;;;;;;;;;5085621;29;20054;-79
2024/04/06 03:19:23;;;;;;;4.45;1.92;;;;;;;;;;5048333;29;20071;-78
2024/04/06 03:21:55;;;;;;;3.55;1.85;;;;;;;;;;5079432;29;20052;-80
2024/04/06 03:24:26;;;;;;;2.97;1.88;;;;;;;;;;5077263;29;20389;-78
2024/04/06 03:26:59;;;;;;;3.65;2.05;;;;;;;;;;5079997;29;20051;-79
2024/04/06 03:29:30;;;;;;;2.00;1.50;;;;;;;;;;5075058;29;20066;-79
2024/04/06 03:32:02;;;;;;;4.00;1.85;;;;;;;;;;5061523;29;20505;-78
2024/04/06 03:34:36;;;;;;;4.78;1.92;;;;;;;;;;5066962;29;20048;-80
2024/04/06 03:37:08;;;;;;;3.17;1.80;;;;;;;;;;5081151;29;20111;-78
2024/04/06 03:39:40;;;;;;;5.93;2.00;;;;;;;;;;5065344;29;20060;-78
2024/04/06 03:42:16;;;;;;;2.53;1.80;;;;;;;;;;5078966;29;20048;-78
2024/04/06 03:44:47;;;;;;;3.65;1.85;;;;;;;;;;5061261;29;20052;-79
2024/04/06 03:47:19;;;;;;;4.45;1.85;;;;;;;;;;5063179;29;20068;-78
2024/04/06 03:49:50;;;;;;;2.63;2.17;;;;;;;;;;5050467;29;20052;-78
2024/04/06 03:52:21;;;;;;;2.85;2.10;;;;;;;;;;5064914;29;20066;-79
2024/04/06 03:54:59;;;;;;;2.00;1.70;;;;;;;;;;5050515;29;20055;-78
2024/04/06 03:57:31;;;;;;;3.55;1.88;;;;;;;;;;5082295;29;20044;-79
2024/04/06 04:00:06;;;;;;;2.25;1.67;;;;;;;;;;5079152;29;20549;-79
2024/04/06 04:02:39;;;;;;;2.88;1.67;;;;;;;;;;5063094;29;20152;-78
2024/04/06 04:05:11;;;;;;;4.00;2.00;;;;;;;;;;5086545;29;20085;-78
2024/04/06 04:07:42;;;;;;;4.22;1.95;;;;;;;;;;5063106;29;20060;-79
2024/04/06 04:10:13;;;;;;;4.55;1.75;;;;;;;;;;5080820;29;20050;-78
2024/04/06 04:12:47;;;;;;;3.22;1.77;;;;;;;;;;5062909;29;20040;-79
2024/04/06 04:15:21;;;;;;;2.60;1.55;;;;;;;;;;5067770;29;20044;-78
2024/04/06 04:17:52;;;;;;;3.28;1.90;;;;;;;;;;5076383;29;20131;-78
2024/04/06 04:20:23;;;;;;;2.47;1.88;;;;;;;;;;5089654;29;20092;-79
2024/04/06 04:22:54;;;;;;;2.40;1.80;;;;;;;;;;5082658;29;20052;-80
2024/04/06 04:25:29;;;;;;;4.20;1.95;;;;;;;;;;5057231;29;20156;-80
2024/04/06 04:28:02;;;;;;;3.60;2.10;;;;;;;;;;5068569;29;21958;-80
2024/04/06 04:30:34;;;;;;;3.28;1.95;;;;;;;;;;5050121;29;20158;-78
2024/04/06 04:33:05;;;;;;;2.90;1.73;;;;;;;;;;5062865;29;20058;-79
2024/04/06 04:35:37;;;;;;;4.60;2.33;;;;;;;;;;5043892;29;20044;-80
2024/04/06 04:38:08;;;;;;;3.35;2.25;;;;;;;;;;5056036;29;20050;-80
2024/04/06 04:40:42;;;;;;;3.80;2.30;;;;;;;;;;5072088;29;20569;-80
2024/04/06 04:43:17;;;;;;;2.83;1.80;;;;;;;;;;5075825;29;20115;-80
2024/04/06 04:45:49;;;;;;;2.67;1.70;;;;;;;;;;5057156;29;20048;-81
2024/04/06 04:48:20;;;;;;;4.18;1.90;;;;;;;;;;5074562;29;20051;-80
2024/04/06 04:50:52;;;;;;;4.22;1.92;;;;;;;;;;5079407;29;20056;-82
2024/04/06 04:53:27;;;;;;;3.60;2.08;;;;;;;;;;5087811;23;20048;-81
2024/04/06 04:56:02;;;;;;;3.30;2.30;;;;;;;;;;5072204;23;20032;31
2024/04/06 04:58:34;;;;;;;4.28;2.40;;;;;;;;;;5003258;29;20058;-78
2024/04/06 05:01:06;;;;;;;3.15;2.00;;;;;;;;;;4986267;29;20069;-79
2024/04/06 05:03:39;;;;;;;4.97;2.40;;;;;;;;;;4995250;29;20034;-79
2024/04/06 05:06:15;;;;;;;6.38;2.20;;;;;;;;;;5345440;23;20122;-78
2024/04/06 05:11:48;;;;;;;5.45;2.47;;;;;;;;;;5304581;23;20045;-80
2024/04/06 05:14:20;;;;;;;2.78;1.88;;;;;;;;;;5067468;29;20036;-80
2024/04/06 05:29:47;;;;;;;7.15;2.85;;;;;;;;;;6087036;23;20024;-80
2024/04/06 05:32:18;;;;;;;5.67;2.53;;;;;;;;;;5032098;29;20056;-81
2024/04/06 05:34:52;;;;;;;7.03;2.55;;;;;;;;;;4993097;29;20069;-81
2024/04/06 05:37:23;;;;;;;6.78;2.78;;;;;;;;;;5016891;29;20045;-80
2024/04/06 06:11:12;;;;;;;5.95;2.50;;;;;;;;;;5014441;29;20066;-80
2024/04/06 06:13:43;;;;;;;2.85;1.90;;;;;;;;;;4991033;29;20050;-81
2024/04/06 06:16:14;;;;;;;3.42;2.30;;;;;;;;;;4998832;23;20071;-80
2024/04/06 06:18:45;;;;;;;3.35;2.20;;;;;;;;;;5274248;23;20060;-76
2024/04/06 06:21:39;;;;;;;2.97;1.73;;;;;;;;;;5414452;23;20276;31
2024/04/06 06:24:11;;;;;;;4.88;2.85;;;;;;;;;;4999909;29;20113;-81
2024/04/06 06:26:44;;;;;;;3.13;2.20;;;;;;;;;;4990956;29;20050;-80
2024/04/06 06:29:15;;;;;;;4.60;1.92;;;;;;;;;;4970419;29;20129;-81
2024/04/06 06:31:49;;;;;;;3.05;1.90;;;;;;;;;;4993148;29;20038;-79
2024/04/06 06:34:20;;;;;;;4.05;2.00;;;;;;;;;;5013948;29;20082;-79
2024/04/06 06:36:52;;;;;;;4.28;2.60;;;;;;;;;;4980458;29;20133;-79
2024/04/06 06:39:23;;;;;;;3.83;2.00;;;;;;;;;;4999069;29;20305;-80
2024/04/06 06:41:56;;;;;;;6.78;2.90;;;;;;;;;;4998580;29;20058;-80
2024/04/06 06:44:27;;;;;;;4.95;2.17;;;;;;;;;;4991080;29;20074;-80
2024/04/06 06:47:01;;;;;;;3.47;1.92;;;;;;;;;;4990638;29;20046;-79
2024/04/06 06:49:35;;;;;;;4.38;2.17;;;;;;;;;;4984515;29;21177;-80
2024/04/06 06:52:07;;;;;;;3.65;1.85;;;;;;;;;;4983595;29;20054;-79
2024/04/06 06:54:38;;;;;;;4.55;2.50;;;;;;;;;;4993498;29;20076;-79
2024/04/06 06:57:13;;;;;;;5.65;2.05;;;;;;;;;;4981555;29;20058;-80
2024/04/06 06:59:45;;;;;;;4.68;1.83;;;;;;;;;;4995706;29;20050;-81
2024/04/06 07:02:18;;;;;;;5.35;2.75;;;;;;;;;;4987126;29;20054;-80
2024/04/06 07:04:49;;;;;;;4.68;2.08;;;;;;;;;;4984414;29;20421;-80
2024/04/06 07:07:21;;;;;;;4.25;1.95;;;;;;;;;;4979386;29;20099;-80
2024/04/06 07:09:52;;;;;;;3.42;1.90;;;;;;;;;;4999008;29;20054;-80
2024/04/06 07:12:27;;;;;;;5.07;2.08;;;;;;;;;;5018973;29;20063;-80
2024/04/06 07:14:58;;;;;;;4.72;1.90;;;;;;;;;;5016647;29;20069;-81
2024/04/06 07:17:30;;;;;;;2.15;1.83;;;;;;;;;;4988869;29;20115;-79
2024/04/06 07:20:01;;;;;;;4.75;2.17;;;;;;;;;;5000071;29;20058;-81
2024/04/06 07:22:35;;;;;;;4.22;2.10;;;;;;;;;;5001849;29;20102;-81
2024/04/06 07:25:06;;;;;;;2.45;1.83;;;;;;;;;;4983022;29;20085;-80
2024/04/06 07:27:40;;;;;;;4.13;1.90;;;;;;;;;;4987545;29;20054;-79
2024/04/06 07:30:11;;;;;;;3.95;1.65;;;;;;;;;;5017454;29;20054;-81
2024/04/06 07:32:42;;;;;;;4.97;2.08;;;;;;;;;;4998762;29;20479;-80
2024/04/06 07:35:13;;;;;;;4.38;1.77;;;;;;;;;;4987444;29;20149;-80
2024/04/06 07:37:45;;;;;;;7.50;1.85;;;;;;;;;;4988598;29;20087;-81
2024/04/06 07:40:16;;;;;;;4.80;2.33;;;;;;;;;;5003632;29;20046;-82
2024/04/06 07:42:50;;;;;;;4.65;1.90;;;;;;;;;;4986082;29;20062;-82
2024/04/06 07:45:24;;;;;;;5.20;2.03;;;;;;;;;;5001867;29;20072;-81
2024/04/06 07:47:56;;;;;;;3.15;1.83;;;;;;;;;;4988032;29;20142;-82
2024/04/06 07:50:27;;;;;;;3.15;1.80;;;;;;;;;;4987756;29;20064;-81
2024/04/06 07:52:59;;;;;;;3.15;1.90;;;;;;;;;;4977574;29;20058;-80
2024/04/06 07:55:30;;;;;;;3.05;1.80;;;;;;;;;;4987130;29;20050;-81
2024/04/06 07:58:03;;;;;;;2.55;1.48;;;;;;;;;;4999659;29;20062;-78
2024/04/06 08:00:35;;;;;;;3.38;1.80;;;;;;;;;;4990732;29;20687;-81
2024/04/06 08:03:12;;;;;;;2.47;1.70;;;;;;;;;;4991720;29;20061;-80
2024/04/06 08:05:43;;;;;;;3.83;1.58;;;;;;;;;;4988193;29;20080;-82
2024/04/06 08:08:16;;;;;;;2.95;1.40;;;;;;;;;;4988200;29;20063;-81
2024/04/06 08:10:50;;;;;;;2.97;1.27;;;;;;;;;;4999033;29;20066;-80
2024/04/06 08:13:24;;;;;;;2.33;1.50;;;;;;;;;;5019331;29;20072;-81
2024/04/06 08:15:57;;;;;;;7.00;1.95;;;;;;;;;;5006376;29;20069;-79
2024/04/06 08:18:29;;;;;;;3.92;1.98;;;;;;;;;;5006741;29;20065;-82
2024/04/06 08:21:01;;;;;;;3.33;1.67;;;;;;;;;;5003955;29;20062;-82
2024/04/06 08:23:33;;;;;;;1.88;1.25;;;;;;;;;;4987577;29;20075;-79
2024/04/06 08:26:04;;;;;;;3.47;1.48;;;;;;;;;;5001345;29;20091;-80
2024/04/06 08:28:37;;;;;;;3.00;1.50;;;;;;;;;;5000767;29;20042;-82
2024/04/06 08:31:11;;;;;;;4.88;1.42;;;;;;;;;;5000470;29;20532;-81
2024/04/06 08:33:43;;;;;;;3.33;1.33;;;;;;;;;;5001947;29;20034;-81
2024/04/06 08:36:18;;;;;;;3.92;1.83;;;;;;;;;;4984061;29;21218;-80
2024/04/06 08:38:49;;;;;;;3.05;1.30;;;;;;;;;;4984433;29;20058;-79
2024/04/06 08:41:21;;;;;;;2.67;1.20;;;;;;;;;;4970065;29;20090;-80
2024/04/06 08:43:56;;;;;;;2.90;1.48;;;;;;;;;;5005777;29;20050;-80
2024/04/06 08:46:29;;;;;;;3.50;1.40;;;;;;;;;;5001787;29;20064;-79
2024/04/06 08:49:01;;;;;;;3.53;1.20;;;;;;;;;;5003223;29;20079;-80
2024/04/06 08:51:38;;;;;;;3.22;1.10;;;;;;;;;;5013703;29;20084;-80
2024/04/06 08:54:09;;;;;;;4.35;1.63;;;;;;;;;;5002495;29;20167;-79
2024/04/06 08:56:41;;;;;;;2.90;1.35;;;;;;;;;;4997919;29;20058;-80
2024/04/06 08:59:14;;;;;;;2.08;1.20;;;;;;;;;;4979376;29;20079;-80
2024/04/06 09:01:51;;;;;;;2.83;1.13;;;;;;;;;;4982854;29;20137;-84
2024/04/06 09:04:32;;;;;;;2.92;0.90;;;;;;;;;;4994146;29;20038;-81
2024/04/06 09:07:04;;;;;;;3.08;1.23;;;;;;;;;;4993511;29;20046;-81
2024/04/06 09:09:37;;;;;;;5.55;1.13;;;;;;;;;;4993505;29;20061;-82
2024/04/06 09:12:11;;;;;;;2.92;1.52;;;;;;;;;;4991445;29;20102;-83
2024/04/06 09:14:46;;;;;;;2.97;1.65;;;;;;;;;;4995951;29;20107;-82
2024/04/06 09:17:21;;;;;;;2.95;1.55;;;;;;;;;;4997330;29;20058;-84
2024/04/06 09:19:52;;;;;;;3.33;1.83;;;;;;;;;;4985994;29;20112;-82
2024/04/06 09:22:24;;;;;;;3.80;1.13;;;;;;;;;;4996932;29;20070;-82
2024/04/06 09:24:55;;;;;;;3.80;1.30;;;;;;;;;;4986499;29;20079;-80
2024/04/06 09:27:27;;;;;;;1.70;1.02;;;;;;;;;;4997815;29;20062;-81
2024/04/06 09:30:03;;;;;;;2.78;1.10;;;;;;;;;;4998635;29;20948;-81
2024/04/06 09:32:36;;;;;;;3.58;0.88;;;;;;;;;;5019969;29;20030;-80
2024/04/06 09:35:07;;;;;;;4.20;1.50;;;;;;;;;;4990815;29;20118;-80
2024/04/06 09:37:42;;;;;;;3.33;1.17;;;;;;;;;;4984337;29;20054;-83
2024/04/06 09:40:17;;;;;;;2.95;1.30;;;;;;;;;;4998853;29;20092;-81
2024/04/06 09:42:48;;;;;;;2.67;0.95;;;;;;;;;;5004922;29;20050;-82
2024/04/06 09:45:25;;;;;;;3.35;1.25;;;;;;;;;;4991856;29;20038;-84
2024/04/06 09:47:57;;;;;;;2.95;1.55;;;;;;;;;;4995467;29;20059;-83
2024/04/06 09:50:29;;;;;;;2.80;1.40;;;;;;;;;;4997488;29;20050;-82
2024/04/06 09:53:01;;;;;;;4.03;1.02;;;;;;;;;;5014274;29;20722;-83
2024/04/06 09:55:36;;;;;;;1.88;0.82;;;;;;;;;;4993614;29;20054;-83
2024/04/06 09:58:07;;;;;;;2.30;1.10;;;;;;;;;;4973971;29;20054;-81
2024/04/06 10:00:46;;;;;;;2.25;1.30;;;;;;;;;;4991073;29;20133;-82
2024/04/06 10:03:20;;;;;;;4.32;1.20;;;;;;;;;;4989517;29;20103;-83
2024/04/06 10:05:52;;;;;;;3.63;1.10;;;;;;;;;;5006992;29;20186;-82
2024/04/06 10:08:25;;;;;;;2.92;1.10;;;;;;;;;;4989710;29;20524;-82
2024/04/06 10:11:00;;;;;;;3.40;1.20;;;;;;;;;;4991643;29;20066;-83
2024/04/06 10:13:35;;;;;;;2.53;1.30;;;;;;;;;;5004435;29;20198;-82
2024/04/06 10:16:09;;;;;;;3.25;1.27;;;;;;;;;;4973915;29;20121;-83
2024/04/06 10:18:39;;;;;;;1.42;0.75;;;;;;;;;;4997603;29;20054;-83
2024/04/06 10:21:13;;;;;;;1.83;0.80;;;;;;;;;;4979433;29;20093;-83
2024/04/06 10:23:46;;;;;;;2.15;0.98;;;;;;;;;;4989978;29;20058;-82
2024/04/06 10:26:18;;;;;;;2.70;1.00;;;;;;;;;;5003558;29;20057;-81
2024/04/06 10:28:51;;;;;;;3.30;1.17;;;;;;;;;;4997864;29;20045;-82
2024/04/06 10:31:24;;;;;;;1.95;1.00;;;;;;;;;;4981361;29;20058;-82
2024/04/06 10:33:57;;;;;;;3.42;1.10;;;;;;;;;;5009757;29;20057;-81
2024/04/06 10:36:30;;;;;;;2.15;1.05;;;;;;;;;;5003731;29;20058;-81
2024/04/06 10:39:07;;;;;;;;;;;;;;;;;;4978349;29;20062;-82
2024/04/06 10:41:42;;;;;;;1.98;1.00;;;;;;;;;;4981193;29;19978;-83
2024/04/06 10:44:16;;;;;;;1.65;0.75;;;;;;;;;;5008822;29;20062;-82
2024/04/06 10:46:50;;;;;;;2.38;1.27;;;;;;;;;;4976844;29;20054;-83
2024/04/06 10:49:23;;;;;;;2.25;1.35;;;;;;;;;;5009148;29;20079;-84
2024/04/06 10:51:55;;;;;;;2.90;1.00;;;;;;;;;;4980536;29;20050;-82
2024/04/06 10:54:31;;;;;;;2.65;1.00;;;;;;;;;;4978883;29;20142;-83
2024/04/06 10:57:11;;;;;;;1.90;0.90;;;;;;;;;;4954892;29;20098;-84
2024/04/06 11:00:04;;;;;;;2.42;1.20;;;;;;;;;;5093758;23;20122;-91
2024/04/06 11:03:00;;;;;;;1.20;0.80;;;;;;;;;;5802007;23;21183;-92
2024/04/06 11:21:09;;;;;;;2.92;1.00;;;;;;;;;;5238929;23;20048;-84
2024/04/06 11:23:40;;;;;;;4.07;0.82;;;;;;;;;;5069954;29;20099;-83
2024/04/06 11:26:17;;;;;;;1.92;0.93;;;;;;;;;;5062390;29;20128;-83
2024/04/06 11:31:56;;;;;;;1.50;0.90;;;;;;;;;;5319740;23;20046;-82
2024/04/06 11:34:54;;;;;;;1.95;0.88;;;;;;;;;;5041918;29;20095;-82
2024/04/06 11:42:30;;;;;;;2.33;0.75;;;;;;;;;;4863222;30;20080;-82
2024/04/06 11:45:01;;;;;;;2.35;1.05;;;;;;;;;;4923161;30;20066;-81
2024/04/06 11:47:36;;;;;;;2.85;0.70;;;;;;;;;;4934201;30;20515;-81
2024/04/06 11:50:17;;;;;;;0.90;0.68;;;;;;;;;;5015202;29;20619;-83
2024/04/06 11:58:48;;;;;;;2.13;0.88;;;;;;;;;;5354598;23;20044;-83
2024/04/06 12:04:32;;;;;;;1.65;0.80;;;;;;;;;;5711513;23;20041;-84
2024/04/06 12:35:18;;;;;;;1.15;0.85;;;;;;;;;;5546695;23;20068;-81
2024/04/06 12:37:51;;;;;;;2.10;0.80;;;;;;;;;;5129598;23;20079;-93
2024/04/06 12:40:27;;;;;;;0.98;0.70;;;;;;;;;;5052155;29;20064;-92
2024/04/06 12:43:03;;;;;;;2.45;0.90;;;;;;;;;;5035618;29;20059;-92
2024/04/06 13:03:06;;;;;;;3.72;1.05;;;;;;;;;;6372197;23;20043;-91
2024/04/06 13:13:06;;;;;;;;;;;;;;;;;;6304696;23;20073;-91
2024/04/06 13:16:00;;;;;;;2.97;0.65;;;;;;;;;;6374978;23;19930;-91
2024/04/06 13:18:55;;;;;;;1.08;0.60;;;;;;;;;;6394999;23;20009;-92
2024/04/06 13:24:41;;;;;;;1.60;0.55;;;;;;;;;;6409138;23;20017;-92
2024/04/06 13:33:28;;;;;;;1.73;0.60;;;;;;;;;;6420697;22;20021;-92
2024/04/06 13:36:04;;;;;;;1.23;0.70;;;;;;;;;;6301151;23;20073;-82
2024/04/06 13:38:36;;;;;;;1.63;0.70;;;;;;;;;;6352857;23;20093;-82
2024/04/06 13:41:08;;;;;;;1.60;0.70;;;;;;;;;;6332132;23;20021;-91
2024/04/06 13:43:52;;;;;;;3.22;0.93;;;;;;;;;;6311041;23;20021;-91
2024/04/06 13:46:30;;;;;;;2.10;0.70;;;;;;;;;;6283400;23;20058;-92
2024/04/06 13:56:08;;;;;;;2.35;1.05;;;;;;;;;;6366086;23;20117;-92
2024/04/06 13:59:13;;;;;;;1.75;0.90;;;;;;;;;;6355048;23;20014;-92
2024/04/06 14:05:20;;;;;;;1.35;0.70;;;;;;;;;;6383382;23;20583;-92
2024/04/06 14:08:03;;;;;;;1.60;0.70;;;;;;;;;;6289487;23;20028;-90
2024/04/06 14:10:48;;;;;;;1.85;0.68;;;;;;;;;;6333016;23;20009;-92
2024/04/06 14:13:46;;;;;;;2.30;0.80;;;;;;;;;;6355281;23;20033;-91
2024/04/06 14:16:43;;;;;;;0.85;0.52;;;;;;;;;;6306315;23;20013;-91
2024/04/06 14:19:53;;;;;;;2.80;0.88;;;;;;;;;;6356306;23;20032;-91
2024/04/06 14:22:32;;;;;;;2.08;0.63;;;;;;;;;;6326419;23;20025;-92
2024/04/06 14:25:10;;;;;;;1.17;0.60;;;;;;;;;;6350426;23;20013;-90
2024/04/06 14:27:51;;;;;;;2.30;0.73;;;;;;;;;;6308409;23;20017;-92
2024/04/06 14:30:51;;;;;;;2.13;1.00;;;;;;;;;;6328175;23;20052;-92
2024/04/06 14:33:36;;;;;;;2.47;0.85;;;;;;;;;;6335089;23;20010;-91
2024/04/06 14:36:19;;;;;;;2.90;0.60;;;;;;;;;;6360381;23;20032;-93
2024/04/06 14:39:08;;;;;;;2.80;0.82;;;;;;;;;;6358534;23;20031;-92
2024/04/06 14:42:11;;;;;;;1.23;0.90;;;;;;;;;;6337809;23;20032;-91
2024/04/06 14:45:35;;;;;;;1.95;0.90;;;;;;;;;;6352775;22;20035;-84
2024/04/06 14:48:12;;;;;;;2.28;0.80;;;;;;;;;;6353007;23;20446;-82
2024/04/06 14:50:47;;;;;;;1.85;1.00;;;;;;;;;;6331058;23;20029;-81
2024/04/06 14:53:18;;;;;;;1.60;0.73;;;;;;;;;;6339078;23;20041;-81
2024/04/06 14:55:50;;;;;;;1.40;0.80;;;;;;;;;;6342386;23;20070;-81
2024/04/06 14:58:23;;;;;;;2.35;1.02;;;;;;;;;;6317077;23;20029;-82
2024/04/06 15:01:07;;;;;;;3.85;0.90;;;;;;;;;;6303552;23;20664;-82
2024/04/06 15:03:38;;;;;;;3.67;1.10;;;;;;;;;;6358122;23;20380;-82
2024/04/06 15:06:15;;;;;;;1.83;1.10;;;;;;;;;;6311778;23;20384;-82
2024/04/06 15:08:50;;;;;;;2.38;1.02;;;;;;;;;;6309539;23;20017;-83
2024/04/06 15:15:23;;;;;;;2.97;0.80;;;;;;;;;;6160936;23;20025;-83
2024/04/06 15:17:55;;;;;;;3.20;1.10;;;;;;;;;;6328503;23;20028;-83
2024/04/06 15:20:27;;;;;;;2.53;0.90;;;;;;;;;;6332895;23;20055;-83
2024/04/06 15:22:59;;;;;;;2.65;0.85;;;;;;;;;;6333453;23;20047;-82
2024/04/06 15:25:33;;;;;;;2.95;0.88;;;;;;;;;;6330884;23;20026;-83
2024/04/06 15:28:05;;;;;;;2.30;0.95;;;;;;;;;;6336235;23;20084;-83
2024/04/06 15:30:38;;;;;;;2.92;0.70;;;;;;;;;;6335820;23;20022;-82
2024/04/06 15:33:08;;;;;;;3.38;1.10;;;;;;;;;;6338554;23;20349;-82
2024/04/06 15:35:41;;;;;;;2.55;1.00;;;;;;;;;;6337671;23;20021;-82
2024/04/06 15:38:14;;;;;;;2.97;1.10;;;;;;;;;;6313110;23;20036;-82
2024/04/06 15:40:49;;;;;;;2.25;0.90;;;;;;;;;;6311430;23;20048;-82
2024/04/06 15:43:20;;;;;;;3.47;0.88;;;;;;;;;;6335887;23;20026;-82
2024/04/06 15:45:52;;;;;;;2.95;1.13;;;;;;;;;;6334600;23;20092;-81
2024/04/06 15:48:24;;;;;;;2.72;0.90;;;;;;;;;;6325877;23;20021;-82
2024/04/06 15:50:56;;;;;;;1.80;1.20;;;;;;;;;;6350007;23;20017;-83
2024/04/06 15:53:32;;;;;;;2.88;1.02;;;;;;;;;;6336118;23;20029;-82
2024/04/06 15:56:04;;;;;;;2.53;1.40;;;;;;;;;;6350594;23;20086;-82
2024/04/06 15:58:38;;;;;;;2.22;1.17;;;;;;;;;;6352566;23;20026;-82
2024/04/06 16:01:10;;;;;;;3.63;1.38;;;;;;;;;;6349881;23;20028;-81
2024/04/06 16:03:41;;;;;;;2.78;1.08;;;;;;;;;;6325919;23;20027;-81
2024/04/06 16:06:13;;;;;;;4.82;2.97;;;;;;;;;;6359221;23;20013;-81
2024/04/06 16:11:51;;;;;;;1.88;1.25;;;;;;;;;;6389456;23;20001;-85
2024/04/06 16:14:23;;;;;;;3.88;1.70;;;;;;;;;;6391493;23;20028;-83
2024/04/06 16:16:55;;;;;;;1.60;1.00;;;;;;;;;;6342916;23;20065;-82
2024/04/06 16:19:25;;;;;;;2.53;1.00;;;;;;;;;;6348747;23;20073;-82
2024/04/06 16:21:57;;;;;;;3.67;1.20;;;;;;;;;;6371729;23;20013;-83
2024/04/06 16:24:28;;;;;;;3.30;1.00;;;;;;;;;;6366470;23;20060;-83
2024/04/06 16:27:03;;;;;;;2.13;1.13;;;;;;;;;;6392608;23;20021;-82
2024/04/06 16:29:34;;;;;;;6.65;1.40;;;;;;;;;;6361799;23;20050;-84
2024/04/06 16:32:07;;;;;;;2.88;1.00;;;;;;;;;;6384808;23;20041;-86
2024/04/06 16:37:50;;;;;;;2.30;0.90;;;;;;;;;;6318942;23;20006;-82
2024/04/06 18:12:19;;;;;;;3.67;1.33;;;;;;;;;;6384191;23;20056;-84
2024/04/06 18:14:50;;;;;;;2.20;1.20;;;;;;;;;;6405705;23;20032;-85
2024/04/06 18:17:35;;;;;;;2.25;1.20;;;;;;;;;;6393342;23;20016;-86
2024/04/06 18:20:11;;;;;;;4.50;1.30;;;;;;;;;;6385267;23;20005;-85
2024/04/06 18:22:43;;;;;;;5.22;1.73;;;;;;;;;;6410345;23;20016;-84
2024/04/06 18:25:14;;;;;;;2.55;1.35;;;;;;;;;;6377999;23;20526;-82
2024/04/06 18:34:12;;;;;;;4.95;1.65;;;;;;;;;;6323448;23;20001;-82
2024/04/06 18:36:47;;;;;;;4.05;1.40;;;;;;;;;;6419690;23;20040;-84
2024/04/06 18:39:24;;;;;;;3.15;1.42;;;;;;;;;;6386259;23;20040;-83
2024/04/06 18:41:59;;;;;;;1.90;1.40;;;;;;;;;;6371375;23;20012;-83
2024/04/06 18:44:51;;;;;;;2.17;1.40;;;;;;;;;;6400688;23;20381;-84
2024/04/06 18:50:27;;;;;;;3.45;1.25;;;;;;;;;;6337896;23;20013;-85
2024/04/06 18:56:01;;;;;;;2.58;1.15;;;;;;;;;;6314810;23;20021;-85
2024/04/06 19:01:35;;;;;;;3.03;1.50;;;;;;;;;;6324024;22;19932;-86
2024/04/06 19:04:06;;;;;;;2.20;1.70;;;;;;;;;;6309028;23;20029;-85
2024/04/06 19:06:40;;;;;;;1.98;1.42;;;;;;;;;;6343144;23;20027;-86
2024/04/06 19:09:11;;;;;;;2.25;1.55;;;;;;;;;;6324481;23;20031;-85
2024/04/06 19:11:43;;;;;;;2.50;1.70;;;;;;;;;;6379392;23;20046;-84
2024/04/06 19:14:14;;;;;;;3.67;1.70;;;;;;;;;;6356951;23;20021;-85
2024/04/06 19:16:46;;;;;;;3.60;1.52;;;;;;;;;;6358350;23;20027;-85
2024/04/06 19:19:17;;;;;;;1.92;1.23;;;;;;;;;;6333685;23;20512;-84
2024/04/06 19:21:50;;;;;;;2.22;1.40;;;;;;;;;;6332523;23;20028;-85
2024/04/06 19:24:25;;;;;;;2.15;1.23;;;;;;;;;;6354333;23;20146;-86
2024/04/06 19:27:08;;;;;;;2.42;1.70;;;;;;;;;;6342136;23;20021;-84
2024/04/06 19:29:39;;;;;;;3.03;2.05;;;;;;;;;;6366793;23;20013;-84
2024/04/06 19:32:11;;;;;;;3.05;1.75;;;;;;;;;;6389727;23;20013;-85
2024/04/06 19:44:33;;;;;;;3.23;2.20;;;;;;;;;;6286794;23;20014;-83
2024/04/06 19:47:06;;;;;;;3.22;2.42;;;;;;;;;;6379617;23;20281;-83
2024/04/06 19:49:38;;;;;;;3.78;2.50;;;;;;;;;;6379325;23;20025;-82
2024/04/06 19:52:17;;;;;;;4.45;3.50;;;;;;;;;;6361292;23;20075;-81
2024/04/06 19:54:58;;;;;;;4.43;3.60;;;;;;;;;;6385560;23;20020;-82
2024/04/06 19:57:31;;;;;;;4.53;3.58;;;;;;;;;;6389974;23;20039;-81
2024/04/06 20:00:19;;;;;;;5.63;3.85;;;;;;;;;;6413610;23;20027;-81
2024/04/06 20:14:08;;;;;;;4.18;3.17;;;;;;;;;;6350464;23;20047;-82
2024/04/06 20:16:39;;;;;;;4.82;3.70;;;;;;;;;;6381957;23;20035;-81